Terminal Aerodrome Forecast
Issued by NWS

Home | Current Version | Previous Version | Text Only | Print | Product List | Glossary On
Versions: 1 2 3 4 5 6 7 8 9 10 11 12 13 14
000
FTUS43 KDDC 291123
TAFHYS
TAF
KHYS 291123Z 2912/3012 21007KT P6SM SKC
     FM291800 20012G20KT P6SM SKC
     FM300000 19008KT P6SM SKC=

USA.gov is the U.S. government's official web portal to all federal, state and local government web resources and services.